Flight Track Log - Related Links

Times and Time Zones

All times are in EST time to prevent confusion due to time zone crossing. See the RPA3357 flight status page for this flight to view local times or setup timezone preferences in your user account.

Time Position Orientation Groundspeed Altitude Reporting Facility
EST Latitude Longitude Course Direction KTS MPH feet Rate Location/Type
Wed 12:19:10 PM 39.8833 -75.2167 258° West 151 174 1,000  Level Philadelphia TRACON
Wed 12:19:34 PM 39.8833 -75.2000 90° East 162 186 1,600 1,429 Climbing Philadelphia TRACON
Wed 12:20:34 PM 39.9333 -75.1833 14° North 265 305 3,000 2,700 Climbing Philadelphia TRACON
Wed 12:21:00 PM 39.8499 -75.5835 218° Southwest  Level FlightAware Approximate
Wed 12:21:34 PM 39.9333 -75.2667 270° West 210 242 7,000  Level Philadelphia TRACON
Wed 12:22:00 PM 39.8334 -75.6917 270° West  Level FlightAware Approximate
Wed 12:23:00 PM 39.8289 -75.8100 258° West  Level FlightAware Approximate
Wed 12:23:08 PM 39.9147 -75.3853 258° West 231 266 10,000  Level New York Center
Wed 12:24:00 PM 39.8096 -75.9261 258° West  Level FlightAware Approximate
Wed 12:24:08 PM 39.8989 -75.4736 257° West 244 281 11,200  Level New York Center
Wed 12:25:08 PM 39.8786 -75.5642 254° West 251 289 12,000 1,100 Climbing New York Center
Wed 12:26:08 PM 39.8644 -75.6525 258° West 262 302 13,400 2,150 Climbing New York Center
Wed 12:27:08 PM 39.8483 -75.7406 257° West 256 295 16,300 2,200 Climbing New York Center
Wed 12:28:08 PM 39.8053 -75.8186 234° Southwest 254 292 17,800 1,800 Climbing New York Center
Wed 12:29:08 PM 39.7622 -75.9019 236° Southwest 268 308 19,900 1,950 Climbing New York Center
Wed 12:30:08 PM 39.7167 -75.9850 235° Southwest 275 316 21,700 1,700 Climbing New York Center
Wed 12:31:08 PM 39.6694 -76.0681 234° Southwest 281 323 23,300 1,021 Climbing New York Center
Wed 12:33:16 PM 39.5639 -76.2564 234° Southwest 320 368 24,900 857 Climbing Washington Center
Wed 12:34:17 PM 39.5092 -76.3528 234° Southwest 332 382 26,000 984 Climbing Washington Center
Wed 12:35:18 PM 39.4542 -76.4542 235° Southwest 339 390 26,900 1,008 Climbing Washington Center
Wed 12:36:16 PM 39.3972 -76.5531 233° Southwest 344 396 28,000 1,068 Climbing Washington Center
Wed 12:37:16 PM 39.3422 -76.6517 234° Southwest 344 396 29,000 950 Climbing Washington Center
Wed 12:38:16 PM 39.2872 -76.7472 233° Southwest 339 390 29,900 850 Climbing Washington Center
Wed 12:39:16 PM 39.2319 -76.8428 233° Southwest 339 390 30,700 793 Climbing Washington Center
Wed 12:40:17 PM 39.1767 -76.9411 234° Southwest 339 390 31,500 744 Climbing Washington Center
Wed 12:41:17 PM 39.1214 -77.0389 234° Southwest 339 390 32,200 750 Climbing Washington Center
Wed 12:42:17 PM 39.0661 -77.1342 233° Southwest 339 390 33,000 793 Climbing Washington Center
Wed 12:43:18 PM 39.0147 -77.2267 234° Southwest 339 390 33,800 496 Climbing Washington Center
Wed 12:44:18 PM 38.9614 -77.3189 233° Southwest 339 390 34,000 103 Climbing Washington Center
Wed 12:45:15 PM 38.9036 -77.4161 233° Southwest 339 390 34,000  Level Washington Center
Wed 12:46:18 PM 38.8439 -77.5186 233° Southwest 339 390 34,000  Level Washington Center
Wed 12:47:18 PM 38.7900 -77.6158 235° Southwest 339 390 34,000  Level Washington Center
Wed 12:48:17 PM 38.7322 -77.7100 232° Southwest 339 390 34,000  Level Washington Center
Wed 12:49:17 PM 38.6783 -77.8042 234° Southwest 339 390 34,000  Level Washington Center
Wed 12:50:18 PM 38.6244 -77.9008 235° Southwest 339 390 34,000  Level Washington Center
Wed 12:51:16 PM 38.5664 -77.9947 232° Southwest 339 390 34,000  Level Washington Center
Wed 12:52:16 PM 38.5100 -78.0911 233° Southwest 339 390 34,000  Level Washington Center
Wed 12:53:16 PM 38.4539 -78.1847 233° Southwest 339 390 34,000  Level Washington Center
Wed 12:54:18 PM 38.3997 -78.2808 234° Southwest 339 390 34,000  Level Washington Center
Wed 12:55:18 PM 38.3433 -78.3739 232° Southwest 339 390 34,000  Level Washington Center
Wed 12:56:16 PM 38.2847 -78.4697 232° Southwest 339 390 34,000  Level Washington Center
Wed 12:57:17 PM 38.2389 -78.5553 236° Southwest 332 382 34,000  Level Washington Center
Wed 12:58:16 PM 38.1822 -78.6508 233° Southwest 332 382 34,000  Level Washington Center
Wed 12:59:18 PM 38.1192 -78.7536 232° Southwest 341 392 34,000  Level Washington Center
Wed 01:00:16 PM 38.0644 -78.8464 233° Southwest 341 392 34,000  Level Washington Center
Wed 01:02:17 PM 37.9486 -79.0336 232° Southwest 341 392 34,000  Level Washington Center
Wed 01:03:17 PM 37.8942 -79.1206 232° Southwest 341 392 34,000  Level Washington Center
Wed 01:04:16 PM 37.8331 -79.2072 228° Southwest 341 392 34,000  Level Washington Center
Wed 01:05:16 PM 37.7700 -79.2961 228° Southwest 347 399 34,000  Level Washington Center
Wed 01:06:16 PM 37.6958 -79.3922 226° Southwest 347 399 34,000  Level Washington Center
Wed 01:07:16 PM 37.6325 -79.4808 228° Southwest 353 406 34,000  Level Washington Center
Wed 01:08:16 PM 37.5692 -79.5692 228° Southwest 353 406 34,000  Level Washington Center
Wed 01:09:16 PM 37.5103 -79.6500 227° Southwest 353 406 34,000  Level Washington Center
Wed 01:10:17 PM 37.4467 -79.7356 227° Southwest 347 399 34,000  Level Washington Center
Wed 01:11:17 PM 37.3808 -79.8286 228° Southwest 355 409 34,000  Level Washington Center
Wed 01:13:54 PM 37.2014 -80.0678 227° Southwest 344 396 34,000  Level Atlanta Center
Wed 01:14:54 PM 37.1433 -80.1464 227° Southwest 350 403 34,000  Level Atlanta Center
Wed 01:15:54 PM 37.0753 -80.2356 226° Southwest 355 409 34,000  Level Atlanta Center
Wed 01:16:54 PM 37.0114 -80.3217 227° Southwest 350 403 34,000  Level Atlanta Center
Wed 01:17:54 PM 36.9453 -80.4106 227° Southwest 350 403 34,000  Level Atlanta Center
Wed 01:18:54 PM 36.8750 -80.5047 227° Southwest 350 403 34,000  Level Atlanta Center
Wed 01:19:54 PM 36.8067 -80.5933 226° Southwest 350 403 34,000  Level Atlanta Center
Wed 01:20:54 PM 36.7422 -80.6789 227° Southwest 350 403 34,000  Level Atlanta Center
Wed 01:21:54 PM 36.6758 -80.7672 227° Southwest 355 409 34,000  Level Atlanta Center
Wed 01:22:54 PM 36.6175 -80.8472 228° Southwest 355 409 34,000  Level Atlanta Center
Wed 01:23:54 PM 36.5508 -80.9375 227° Southwest 355 409 34,000  Level Atlanta Center
Wed 01:24:54 PM 36.4803 -81.0333 228° Southwest 355 409 34,000  Level Atlanta Center
Wed 01:25:54 PM 36.4136 -81.1183 226° Southwest 349 402 34,000  Level Atlanta Center
Wed 01:26:54 PM 36.3469 -81.2083 227° Southwest 349 402 34,000  Level Atlanta Center
Wed 01:27:54 PM 36.2861 -81.2878 226° Southwest 355 409 34,000  Level Atlanta Center
Wed 01:28:54 PM 36.2192 -81.3750 226° Southwest 355 409 34,000  Level Atlanta Center
Wed 01:29:54 PM 36.1503 -81.4647 226° Southwest 355 409 34,000  Level Atlanta Center
Wed 01:30:54 PM 36.0811 -81.5517 225° Southwest 355 409 34,000  Level Atlanta Center
Wed 01:31:54 PM 36.0139 -81.6411 227° Southwest 355 409 34,000  Level Atlanta Center
Wed 01:32:54 PM 35.9428 -81.7278 225° Southwest 355 409 34,000  Level Atlanta Center
Wed 01:33:54 PM 35.8756 -81.8169 227° Southwest 355 409 34,000  Level Atlanta Center
Wed 01:34:54 PM 35.8061 -81.9033 225° Southwest 355 409 34,000  Level Atlanta Center
Wed 01:35:54 PM 35.7367 -81.9947 227° Southwest 355 409 34,000  Level Atlanta Center
Wed 01:36:54 PM 35.6692 -82.0806 226° Southwest 355 409 34,000  Level Atlanta Center
Wed 01:37:54 PM 35.5997 -82.1667 225° Southwest 355 409 34,000  Level Atlanta Center
Wed 01:38:54 PM 35.5300 -82.2550 226° Southwest 355 409 34,000  Level Atlanta Center
Wed 01:39:54 PM 35.4519 -82.3433 223° Southwest 350 403 34,000  Level Atlanta Center
Wed 01:40:54 PM 35.3781 -82.4289 223° Southwest 350 403 34,000  Level Atlanta Center
Wed 01:41:54 PM 35.3039 -82.5092 221° Southwest 355 409 34,000  Level Atlanta Center
Wed 01:42:54 PM 35.2403 -82.5817 223° Southwest 355 409 34,000  Level Atlanta Center
Wed 01:43:54 PM 35.1681 -82.6642 223° Southwest 355 409 34,000 -100 Level Atlanta Center
Wed 01:44:54 PM 35.0958 -82.7467 223° Southwest 362 417 33,800 -900 Descending Atlanta Center
Wed 01:45:54 PM 35.0236 -82.8264 222° Southwest 362 417 32,200 -1,600 Descending Atlanta Center
Wed 01:46:54 PM 34.9472 -82.9086 221° Southwest 357 411 30,600 -1,650 Descending Atlanta Center
Wed 01:47:54 PM 34.8686 -82.9881 220° Southwest 363 418 28,900 -1,700 Descending Atlanta Center
Wed 01:48:54 PM 34.7881 -83.0728 221° Southwest 373 429 27,200 -1,650 Descending Atlanta Center
Wed 01:49:54 PM 34.7156 -83.1594 225° Southwest 379 436 25,600 -1,600 Descending Atlanta Center
Wed 01:50:54 PM 34.6411 -83.2408 222° Southwest 368 423 24,000 -1,600 Descending Atlanta Center
Wed 01:51:54 PM 34.5686 -83.3197 222° Southwest 359 413 22,400 -1,550 Descending Atlanta Center
Wed 01:52:54 PM 34.4917 -83.4036 222° Southwest 353 406 20,900 -1,550 Descending Atlanta Center
Wed 01:53:54 PM 34.4192 -83.4822 222° Southwest 353 406 19,300 -1,550 Descending Atlanta Center
Wed 01:54:54 PM 34.3486 -83.5583 222° Southwest 346 398 17,800 -1,500 Descending Atlanta Center
Wed 01:55:54 PM 34.2819 -83.6314 222° Southwest 341 392 16,300 -1,550 Descending Atlanta Center
Wed 01:56:54 PM 34.2153 -83.7072 223° Southwest 336 387 14,700 -1,500 Descending Atlanta Center
Wed 01:57:54 PM 34.1489 -83.7778 221° Southwest 336 387 13,300 -1,350 Descending Atlanta Center
Wed 01:58:54 PM 34.0883 -83.8406 221° Southwest 310 357 12,000 -1,300 Descending Atlanta Center
Wed 01:59:54 PM 34.0300 -83.9033 222° Southwest 294 338 10,700 -1,000 Descending Atlanta Center
Wed 02:00:54 PM 33.9675 -83.9461 210° Southwest 289 333 10,000 -350 Descending Atlanta Center
Wed 02:01:54 PM 33.8797 -83.9511 183° South 301 346 10,000 -500 Level Atlanta Center
Wed 02:02:54 PM 33.8025 -83.9564 183° South 296 341 9,000 -1,150 Descending Atlanta Center
Wed 02:03:54 PM 33.7317 -83.9689 188° South 273 314 7,700 -663 Descending Atlanta Center
Wed 02:06:22 PM 33.6333 -84.0667 220° Southwest 179 206 6,700 -519 Descending Atlanta TRACON
Wed 02:07:22 PM 33.6333 -84.1167 270° West 172 198 5,900 -800 Descending Atlanta TRACON
Wed 02:08:22 PM 33.6333 -84.1667 270° West 154 177 5,100 -800 Descending Atlanta TRACON
Wed 02:09:22 PM 33.6333 -84.2167 270° West 153 176 4,300 -850 Descending Atlanta TRACON
Wed 02:10:22 PM 33.6333 -84.2833 270° West 161 185 3,400 -900 Descending Atlanta TRACON
Wed 02:11:22 PM 33.6333 -84.3333 270° West 159 183 2,500 -850 Descending Atlanta TRACON
Wed 02:12:22 PM 33.6333 -84.3833 270° West 128 147 1,700 -800 Descending Atlanta TRACON

Login

Don't have an account? Register now (free) for customized features, flight alerts, and more!